Time;durP1;ratioP1;P1;durP2;ratioP2;P2;SDS_P1;SDS_P2;PMS_P1;PMS_P2;Temp;Humidity;BMP_temperature;BMP_pressure;BME280_temperature;BME280_humidity;BME280_pressure;Samples;Min_cycle;Max_cycle;Signal;HPM_P1;HPM_P2
2022/06/05 07:31:02;;;;;;;41.00;33.10;;;;;;;18.75;71.67;99302.48;106158;1267;97945;-71
2022/06/05 07:33:31;;;;;;;44.00;35.10;;;;;;;18.81;71.59;99306.57;105840;1279;107779;-70
2022/06/05 07:36:03;;;;;;;41.70;32.00;;;;;;;18.86;71.43;99307.81;105838;1279;97957;-70
2022/06/05 07:38:33;;;;;;;41.10;32.90;;;;;;;18.92;71.48;99307.70;105904;1277;97854;-71
2022/06/05 07:41:01;;;;;;;40.40;32.00;;;;;;;18.99;71.55;99311.19;105928;1279;111571;-70
2022/06/05 07:43:30;;;;;;;39.40;32.30;;;;;;;19.05;71.48;99312.88;105962;1277;97883;-70
2022/06/05 07:46:02;;;;;;;41.30;33.30;;;;;;;19.14;71.53;99311.77;105909;1277;108220;-72
2022/06/05 07:48:31;;;;;;;41.60;34.50;;;;;;;19.23;71.49;99309.19;105910;1277;98014;-72
2022/06/05 07:56:45;;;;;;;38.10;30.10;;;;;;;21.04;69.93;99309.29;105946;1277;97906;-71
2022/06/05 07:59:13;;;;;;;34.60;28.50;;;;;;;22.31;69.38;99307.05;105880;1277;107811;-71
2022/06/05 08:02:00;;;;;;;33.70;26.60;;;;;;;23.43;69.26;99301.52;105909;1277;97878;-72
2022/06/05 08:04:28;;;;;;;31.50;25.20;;;;;;;23.39;70.37;99307.73;105997;1277;97777;-70
2022/06/05 08:06:58;;;;;;;32.00;25.80;;;;;;;23.36;70.80;99311.60;105955;1277;111391;-70
2022/06/05 08:09:28;;;;;;;33.50;25.80;;;;;;;23.62;70.18;99311.79;105930;1277;97953;-70
2022/06/05 08:11:57;;;;;;;30.60;24.70;;;;;;;23.82;69.62;99313.67;105902;1278;107417;-71
2022/06/05 08:14:25;;;;;;;31.00;25.00;;;;;;;23.66;69.78;99319.81;105911;1279;98244;-69
2022/06/05 08:16:56;;;;;;;33.30;25.00;;;;;;;23.54;70.02;99322.84;105955;1277;98097;-68
2022/06/05 08:19:24;;;;;;;31.60;24.50;;;;;;;23.62;69.52;99323.61;105924;1277;111640;-69
2022/06/05 08:21:53;;;;;;;31.70;26.50;;;;;;;24.07;69.06;99326.02;105877;1279;97703;-69
2022/06/05 08:24:22;;;;;;;30.90;25.30;;;;;;;24.07;69.29;99329.69;105893;1279;107799;-70
2022/06/05 08:26:51;;;;;;;29.90;24.40;;;;;;;24.06;69.34;99325.41;105947;1279;95965;-70
2022/06/05 08:29:20;;;;;;;28.90;23.20;;;;;;;24.13;69.04;99326.40;105929;1277;97878;-69
2022/06/05 08:31:48;;;;;;;30.90;22.10;;;;;;;24.69;68.51;99327.72;105985;1277;111401;-70
2022/06/05 08:34:17;;;;;;;30.10;22.90;;;;;;;25.41;68.15;99331.17;105976;1277;97883;-69
2022/06/05 08:36:44;;;;;;;30.00;22.60;;;;;;;26.14;68.04;99332.39;105691;1277;107434;-71
2022/06/05 08:42:26;;;;;;;27.50;22.30;;;;;;;26.82;67.57;99340.71;105861;1278;96522;-72
2022/06/05 08:45:04;;;;;;;25.30;19.60;;;;;;;26.97;67.41;99339.57;105844;1278;111478;-72
2022/06/05 08:47:40;;;;;;;27.50;22.10;;;;;;;27.38;67.04;99338.70;105839;1278;97858;-73
2022/06/05 08:50:20;;;;;;;27.80;22.40;;;;;;;27.20;67.06;99343.02;105914;1278;107390;-74
2022/06/05 08:52:56;;;;;;;27.00;22.60;;;;;;;26.86;66.88;99341.25;105902;1278;97877;-72
2022/06/05 08:55:40;;;;;;;27.00;22.40;;;;;;;26.53;66.92;99338.82;105975;1277;97873;-73
2022/06/05 08:58:30;;;;;;;27.50;22.40;;;;;;;26.50;66.75;99339.20;105906;1277;110987;-72
2022/06/05 09:01:12;;;;;;;27.80;22.10;;;;;;;26.51;66.24;99341.29;105870;1277;96063;-70
2022/06/05 09:04:11;;;;;;;28.30;20.10;;;;;;;26.24;66.23;99347.27;105830;1277;107543;-70
2022/06/05 09:06:45;;;;;;;27.00;20.10;;;;;;;26.00;65.80;99343.89;105843;1277;95191;-72
2022/06/05 09:09:45;;;;;;;23.80;17.40;;;;;;;26.02;65.89;99343.48;105864;1278;97856;-71
2022/06/05 09:12:29;;;;;;;27.40;20.20;;;;;;;26.30;65.45;99341.11;105816;1278;110406;-72
2022/06/05 09:15:10;;;;;;;24.00;19.00;;;;;;;26.68;65.03;99337.73;105896;1277;98241;-71
2022/06/05 09:17:46;;;;;;;23.80;18.10;;;;;;;26.69;65.16;99334.95;105881;1277;107807;-69
2022/06/05 09:20:14;;;;;;;28.50;19.30;;;;;;;26.57;64.87;99333.70;105880;1278;97848;-70
2022/06/05 09:22:50;;;;;;;25.60;18.80;;;;;;;26.85;64.57;99334.11;105903;1278;96389;-71
2022/06/05 09:25:59;;;;;;;25.70;19.70;;;;;;;27.50;64.41;99329.35;105791;1278;110044;-70
2022/06/05 09:28:50;;;;;;;25.40;18.40;;;;;;;28.02;63.73;99327.09;105959;1278;97683;-70
2022/06/05 09:31:30;;;;;;;26.10;18.60;;;;;;;28.49;63.48;99324.54;105874;1277;108109;-69
2022/06/05 09:34:04;;;;;;;24.20;17.70;;;;;;;28.86;63.00;99322.30;105807;1278;97903;-71
2022/06/05 09:36:33;;;;;;;23.70;16.40;;;;;;;29.20;63.03;99321.20;105937;1277;98066;-72
2022/06/05 09:39:14;;;;;;;25.50;16.10;;;;;;;29.51;62.81;99321.48;105895;1277;111455;-71
2022/06/05 09:42:13;;;;;;;21.70;15.20;;;;;;;29.70;62.55;99326.17;105811;1278;98363;-70
2022/06/05 09:44:59;;;;;;;27.60;15.90;;;;;;;29.97;62.36;99324.25;105846;1278;107824;-72
2022/06/05 09:47:39;;;;;;;25.40;16.90;;;;;;;30.20;61.78;99316.20;105833;1277;97864;-71
2022/06/05 09:50:22;;;;;;;21.90;14.00;;;;;;;30.28;61.66;99311.27;105924;1278;97880;-71
2022/06/05 09:52:50;;;;;;;20.00;13.70;;;;;;;30.33;61.17;99313.35;105871;1277;111446;-70
2022/06/05 09:55:21;;;;;;;23.30;16.10;;;;;;;30.24;61.02;99313.61;105724;1278;97829;-72
2022/06/05 09:58:24;;;;;;;23.40;15.80;;;;;;;30.01;61.00;99307.42;105828;1278;107736;-72
2022/06/05 10:00:53;;;;;;;;;;;;;;;29.90;60.58;99310.35;105832;1277;97854;-72
2022/06/05 10:03:24;;;;;;;24.40;17.10;;;;;;;29.80;60.27;99308.83;105933;1277;96327;-70
2022/06/05 10:06:21;;;;;;;24.00;16.50;;;;;;;29.68;60.19;99306.05;105859;1278;111398;-71
2022/06/05 10:09:34;;;;;;;25.30;16.20;;;;;;;29.57;59.78;99305.09;105893;1277;96054;-70
2022/06/05 10:12:07;;;;;;;30.10;16.40;;;;;;;29.32;59.18;99303.41;105111;1285;107812;-68
2022/06/05 10:14:47;;;;;;;23.40;16.10;;;;;;;29.08;58.88;99301.57;105168;1285;97819;-69
2022/06/05 10:17:31;;;;;;;27.20;17.20;;;;;;;28.93;58.69;99304.07;105657;1277;98472;-67
2022/06/05 10:20:14;;;;;;;26.80;16.00;;;;;;;28.85;58.44;99301.84;105810;1278;111807;-68
2022/06/05 10:22:52;;;;;;;;;;;;;;;28.74;58.21;99304.08;105843;1278;96309;-69
2022/06/05 10:25:36;;;;;;;22.00;14.50;;;;;;;28.60;58.02;99306.68;105722;1277;107244;-68
2022/06/05 10:28:15;;;;;;;20.40;14.00;;;;;;;28.43;57.55;99305.20;105795;1277;96365;-72
2022/06/05 10:30:54;;;;;;;20.50;13.90;;;;;;;28.22;57.47;99311.51;105828;1277;96484;-69
2022/06/05 10:33:31;;;;;;;21.80;14.40;;;;;;;28.11;57.26;99312.06;105885;1277;113595;-68
2022/06/05 10:36:13;;;;;;;25.00;16.40;;;;;;;27.99;56.95;99309.94;105767;1277;99608;-68
2022/06/05 10:38:52;;;;;;;23.60;15.40;;;;;;;27.89;56.88;99311.31;105752;1278;108090;-69
2022/06/05 10:41:53;;;;;;;24.80;14.50;;;;;;;27.84;56.74;99315.33;105775;1278;98024;-69
2022/06/05 10:44:28;;;;;;;22.70;15.70;;;;;;;27.83;56.29;99312.39;105482;1281;97923;-68
2022/06/05 10:47:04;;;;;;;21.10;14.70;;;;;;;27.85;56.40;99311.34;105809;1278;111251;-68
2022/06/05 10:50:04;;;;;;;20.20;13.90;;;;;;;27.86;56.12;99314.64;105778;1277;98207;-68
2022/06/05 10:52:40;;;;;;;21.00;13.40;;;;;;;27.78;55.87;99316.20;105811;1277;107779;-68
2022/06/05 10:55:37;;;;;;;22.30;14.10;;;;;;;27.73;55.43;99312.36;105895;1278;97915;-71
2022/06/05 10:58:13;;;;;;;21.20;12.80;;;;;;;27.64;55.42;99312.54;105879;1278;97973;-72
2022/06/05 11:01:01;;;;;;;18.40;11.40;;;;;;;27.57;55.45;99318.61;105817;1277;111024;-71
2022/06/05 11:03:44;;;;;;;19.80;12.60;;;;;;;27.50;55.00;99320.16;105880;1277;95698;-73
2022/06/05 11:06:18;;;;;;;19.00;12.70;;;;;;;27.44;54.73;99320.88;105856;1277;107700;-71
2022/06/05 11:09:01;;;;;;;20.70;13.40;;;;;;;27.33;54.72;99316.45;105844;1278;95331;-70
2022/06/05 11:14:53;;;;;;;20.60;13.90;;;;;;;27.00;54.43;99312.19;105918;1278;111332;-74
2022/06/05 11:17:37;;;;;;;19.50;12.50;;;;;;;26.85;54.02;99311.16;105873;1278;97972;-71
2022/06/05 11:20:09;;;;;;;20.50;13.40;;;;;;;26.73;54.08;99309.55;105831;1278;106507;-70
2022/06/05 11:22:52;;;;;;;20.40;13.10;;;;;;;26.64;53.99;99306.46;105861;1278;97964;-69
2022/06/05 11:25:29;;;;;;;21.60;13.70;;;;;;;26.51;53.89;99304.03;105865;1278;97876;-71
2022/06/05 11:28:42;;;;;;;19.90;14.50;;;;;;;26.34;53.82;99299.51;105879;1278;111303;-70
2022/06/05 11:31:17;;;;;;;20.40;13.30;;;;;;;26.16;53.74;99299.29;105876;1278;97868;-70
2022/06/05 11:34:14;;;;;;;23.30;11.80;;;;;;;26.11;53.44;99301.05;105942;1278;107781;-69
2022/06/05 11:36:52;;;;;;;20.20;11.60;;;;;;;26.05;53.12;99296.90;105710;1279;97971;-70
2022/06/05 11:39:48;;;;;;;17.40;11.30;;;;;;;26.04;53.50;99291.06;105913;1279;97966;-70
2022/06/05 11:42:49;;;;;;;18.20;11.30;;;;;;;26.10;53.22;99283.47;105907;1278;112295;-68
2022/06/05 11:45:51;;;;;;;20.70;13.50;;;;;;;26.03;53.03;99286.20;105792;1278;97937;-69
2022/06/05 11:48:29;;;;;;;19.90;12.60;;;;;;;25.92;53.11;99283.03;105831;1279;107659;-70
2022/06/05 11:51:12;;;;;;;18.90;11.70;;;;;;;25.79;52.88;99281.77;105825;1278;97865;-71
2022/06/05 11:53:52;;;;;;;18.70;12.30;;;;;;;25.71;52.74;99275.95;105908;1278;97754;-71
2022/06/05 11:56:26;;;;;;;19.40;12.90;;;;;;;25.65;52.72;99278.20;105856;1278;110030;-70
2022/06/05 11:58:56;;;;;;;20.00;12.50;;;;;;;25.63;52.64;99273.55;105819;1279;98373;-71
2022/06/05 12:01:31;;;;;;;19.40;12.20;;;;;;;25.64;52.55;99272.59;105758;1278;107754;-71
2022/06/05 12:04:10;;;;;;;18.90;12.00;;;;;;;25.66;52.50;99270.84;105887;1278;97856;-70
2022/06/05 12:06:49;;;;;;;20.70;12.10;;;;;;;25.66;52.64;99272.47;105882;1279;97910;-68
2022/06/05 12:09:21;;;;;;;19.30;12.50;;;;;;;25.64;52.42;99267.14;105861;1279;111317;-75
2022/06/05 12:12:04;;;;;;;20.30;13.90;;;;;;;25.70;52.35;99269.36;105876;1279;97919;-69
2022/06/05 12:15:02;;;;;;;23.10;12.80;;;;;;;25.69;52.36;99268.94;105826;1277;107971;-70
2022/06/05 12:17:41;;;;;;;19.00;12.60;;;;;;;25.67;52.32;99265.41;105756;1279;95461;-68
2022/06/05 12:20:28;;;;;;;19.00;12.00;;;;;;;25.70;52.17;99262.95;105808;1278;97965;-69
2022/06/05 12:23:12;;;;;;;21.60;12.90;;;;;;;25.76;52.29;99260.66;105837;1279;111168;-69
2022/06/05 12:25:49;;;;;;;21.30;14.40;;;;;;;25.82;52.13;99252.42;105879;1278;95970;-69
2022/06/05 12:28:38;;;;;;;23.00;14.40;;;;;;;25.88;52.32;99253.59;105848;1278;107680;-70
2022/06/05 12:31:27;;;;;;;21.60;13.60;;;;;;;25.95;52.21;99251.90;105774;1279;97967;-69
2022/06/05 12:34:01;;;;;;;17.90;11.40;;;;;;;26.00;52.14;99249.25;105799;1278;97873;-69
2022/06/05 12:36:37;;;;;;;19.10;12.60;;;;;;;26.02;51.92;99250.48;105863;1278;111569;-69
2022/06/05 12:39:14;;;;;;;19.10;11.40;;;;;;;26.01;52.08;99248.66;105817;1277;98286;-69
2022/06/05 12:42:08;;;;;;;19.50;12.80;;;;;;;26.02;51.62;99247.09;105799;1278;107539;-68
2022/06/05 12:45:01;;;;;;;18.60;11.50;;;;;;;25.90;51.61;99242.91;105800;1278;97777;-68
2022/06/05 12:48:01;;;;;;;18.90;11.70;;;;;;;25.83;51.70;99241.49;105824;1279;97837;-69
2022/06/05 12:50:51;;;;;;;21.60;11.50;;;;;;;25.87;51.53;99234.66;105889;1278;111368;-69
2022/06/05 12:53:37;;;;;;;17.50;10.00;;;;;;;25.86;51.46;99235.70;105836;1279;98292;-70
2022/06/05 12:56:20;;;;;;;17.70;10.30;;;;;;;25.78;51.03;99230.23;105757;1278;108819;-69
2022/06/05 12:59:10;;;;;;;18.00;10.50;;;;;;;25.65;51.09;99229.77;105759;1278;95305;-69
2022/06/05 13:01:51;;;;;;;17.70;9.60;;;;;;;25.60;50.83;99229.58;105719;1279;96282;-70
2022/06/05 13:04:44;;;;;;;15.20;8.40;;;;;;;25.57;50.90;99226.60;105800;1278;111397;-69
2022/06/05 13:07:32;;;;;;;19.90;9.70;;;;;;;25.60;50.93;99229.03;105907;1278;98087;-69
2022/06/05 13:10:14;;;;;;;13.10;7.30;;;;;;;25.65;51.00;99235.72;105827;1279;107641;-69
2022/06/05 13:12:50;;;;;;;15.70;8.40;;;;;;;25.70;50.52;99234.29;105798;1278;97880;-70
2022/06/05 13:15:23;;;;;;;14.50;8.50;;;;;;;25.70;50.54;99236.72;105932;1278;95279;-69
2022/06/05 13:17:58;;;;;;;15.00;8.60;;;;;;;25.68;50.36;99237.77;105851;1279;111323;-68
2022/06/05 13:20:40;;;;;;;19.70;9.90;;;;;;;25.60;50.22;99235.73;105896;1279;95487;-68
2022/06/05 13:23:24;;;;;;;17.20;8.70;;;;;;;25.57;50.13;99227.73;105834;1279;107834;-67
2022/06/05 13:26:06;;;;;;;15.90;8.40;;;;;;;25.52;49.93;99226.20;105783;1279;98018;-69
2022/06/05 13:28:39;;;;;;;13.00;7.50;;;;;;;25.48;49.90;99221.14;105803;1279;97842;-69
2022/06/05 13:31:45;;;;;;;16.50;7.90;;;;;;;25.45;49.84;99221.55;105730;1279;111331;-68
2022/06/05 13:34:22;;;;;;;;;;;;;;;25.44;49.67;99216.94;105866;1279;98291;-69
2022/06/05 13:37:00;;;;;;;11.40;6.50;;;;;;;25.35;49.43;99217.30;105765;1279;109014;-68
2022/06/05 13:39:38;;;;;;;15.50;8.00;;;;;;;25.33;49.45;99212.92;105781;1279;97865;-68
2022/06/05 13:42:17;;;;;;;15.60;8.20;;;;;;;25.29;49.20;99209.70;105869;1279;97976;-69
2022/06/05 13:44:59;;;;;;;14.00;7.20;;;;;;;25.25;49.36;99211.03;105777;1279;112233;-68
2022/06/05 13:47:48;;;;;;;11.80;6.50;;;;;;;25.24;49.10;99203.77;105779;1279;98544;-69
2022/06/05 13:50:19;;;;;;;12.80;7.10;;;;;;;25.18;49.11;99210.16;105779;1277;107722;-68
2022/06/05 13:52:52;;;;;;;14.20;6.70;;;;;;;25.16;48.93;99210.44;105856;1279;97886;-70
2022/06/05 13:55:28;;;;;;;12.60;7.40;;;;;;;25.17;48.93;99210.48;105900;1279;99331;-70
2022/06/05 13:58:03;;;;;;;14.00;7.60;;;;;;;25.20;48.79;99203.17;105833;1278;110966;-70
2022/06/05 14:00:48;;;;;;;13.90;7.30;;;;;;;25.23;48.72;99203.31;105869;1279;97979;-70
2022/06/05 14:03:37;;;;;;;12.40;7.50;;;;;;;25.24;48.47;99204.79;105853;1278;106721;-69
2022/06/05 14:06:17;;;;;;;12.80;6.50;;;;;;;25.22;48.52;99198.96;105817;1278;98000;-68
2022/06/05 14:08:53;;;;;;;13.50;7.30;;;;;;;25.20;48.53;99198.61;105715;1279;97886;-68
2022/06/05 14:11:31;;;;;;;13.40;7.00;;;;;;;25.20;48.41;99196.68;105649;1279;111495;-68
2022/06/05 14:14:01;;;;;;;13.50;7.40;;;;;;;25.19;48.23;99196.17;105589;1279;98219;-69
2022/06/05 14:16:51;;;;;;;11.90;7.10;;;;;;;25.21;48.08;99194.92;105568;1277;108283;-70
2022/06/05 14:19:31;;;;;;;14.00;7.30;;;;;;;25.19;47.95;99192.50;105747;1279;95210;-70
2022/06/05 14:22:12;;;;;;;14.70;7.30;;;;;;;25.14;48.05;99190.38;105773;1278;97960;-70
2022/06/05 14:24:44;;;;;;;14.00;7.40;;;;;;;25.09;47.91;99184.83;105780;1278;111930;-70
2022/06/05 14:27:29;;;;;;;14.60;7.70;;;;;;;25.06;47.87;99183.04;105933;1278;99114;-69
2022/06/05 14:30:00;;;;;;;14.00;7.40;;;;;;;25.07;47.88;99180.72;105960;1279;107717;-71
2022/06/05 14:32:39;;;;;;;16.10;8.30;;;;;;;25.08;47.70;99178.95;105812;1278;97899;-69
2022/06/05 14:35:16;;;;;;;15.40;8.20;;;;;;;25.03;47.71;99179.80;105641;1279;97917;-72
2022/06/05 14:37:55;;;;;;;13.40;7.60;;;;;;;24.98;47.60;99184.66;105740;1279;112174;-71
2022/06/05 14:40:30;;;;;;;15.10;8.00;;;;;;;24.90;47.41;99182.95;105817;1278;98247;-71
2022/06/05 14:43:07;;;;;;;13.90;7.40;;;;;;;24.86;47.47;99183.11;105611;1278;107580;-70
2022/06/05 14:45:42;;;;;;;15.70;8.50;;;;;;;24.85;47.47;99182.38;105735;1278;97979;-69
2022/06/05 14:48:26;;;;;;;13.40;7.70;;;;;;;24.85;47.26;99183.65;105773;1278;97974;-69
2022/06/05 14:51:00;;;;;;;15.00;7.50;;;;;;;24.90;47.25;99173.08;105691;1278;111321;-68
2022/06/05 14:53:43;;;;;;;16.60;8.50;;;;;;;24.93;47.07;99171.13;105763;1279;95805;-70
2022/06/05 14:59:38;;;;;;;16.30;7.50;;;;;;;25.04;47.01;99162.63;105694;1278;97959;-70
2022/06/05 15:02:47;;;;;;;17.70;8.60;;;;;;;25.07;47.03;99165.48;105682;1279;97878;-69
2022/06/05 15:05:23;;;;;;;12.80;7.40;;;;;;;25.12;46.93;99163.53;104955;1286;112076;-71
2022/06/05 15:08:05;;;;;;;15.90;8.30;;;;;;;25.19;47.17;99161.19;104942;1287;95594;-70
2022/06/05 15:10:48;;;;;;;14.40;8.00;;;;;;;25.23;46.72;99162.11;105374;1279;108450;-70
2022/06/05 15:13:27;;;;;;;14.20;7.60;;;;;;;25.26;46.79;99160.55;105650;1278;97904;-69
2022/06/05 15:16:31;;;;;;;18.20;8.70;;;;;;;25.30;46.86;99157.98;106485;1278;98985;-69
2022/06/05 15:19:03;;;;;;;14.00;7.70;;;;;;;25.26;46.64;99148.83;105600;1279;112057;-70
2022/06/05 15:21:39;;;;;;;15.80;8.10;;;;;;;25.25;46.66;99148.23;105896;1279;97857;-70
2022/06/05 15:24:13;;;;;;;14.30;8.00;;;;;;;25.25;46.62;99148.59;105690;1279;107638;-69
2022/06/05 15:27:10;;;;;;;16.90;9.00;;;;;;;25.27;46.55;99143.43;105692;1279;98034;-69
2022/06/05 15:29:57;;;;;;;15.10;8.50;;;;;;;25.28;46.55;99140.67;105482;1278;97105;-69
2022/06/05 15:32:37;;;;;;;18.10;8.80;;;;;;;25.29;46.64;99143.61;105578;1277;111726;-72
2022/06/05 15:35:15;;;;;;;17.80;9.40;;;;;;;25.34;46.58;99141.45;105328;1279;98093;-71
2022/06/05 15:38:23;;;;;;;17.20;9.20;;;;;;;25.38;46.38;99136.17;105728;1278;108242;-70
2022/06/05 15:41:16;;;;;;;16.20;9.20;;;;;;;25.42;46.38;99139.04;105693;1278;96193;-71
2022/06/05 15:44:32;;;;;;;18.60;9.40;;;;;;;25.48;46.36;99139.06;105708;1278;97842;-70
2022/06/05 15:47:03;;;;;;;15.60;9.10;;;;;;;25.49;46.29;99139.81;105440;1279;110805;-69
2022/06/05 15:49:55;;;;;;;15.60;8.30;;;;;;;25.52;46.33;99137.48;105567;1278;97886;-70
2022/06/05 15:52:39;;;;;;;15.40;8.00;;;;;;;25.56;46.20;99140.49;105885;1279;107830;-69
2022/06/05 15:55:15;;;;;;;13.90;8.10;;;;;;;25.55;46.23;99144.14;105611;1278;97995;-71
2022/06/05 16:00:59;;;;;;;13.70;7.50;;;;;;;25.36;46.15;99151.16;105660;1278;111301;-70
2022/06/05 16:03:37;;;;;;;17.10;7.60;;;;;;;25.33;46.15;99144.83;105708;1279;95914;-71
2022/06/05 16:06:06;;;;;;;12.50;7.30;;;;;;;25.30;45.99;99148.37;105584;1279;107758;-70
2022/06/05 16:08:49;;;;;;;16.90;8.00;;;;;;;25.24;46.09;99151.98;105616;1279;95776;-71
2022/06/05 16:11:23;;;;;;;13.10;7.60;;;;;;;25.17;46.04;99149.86;105714;1279;95892;-69
2022/06/05 16:14:29;;;;;;;19.00;7.90;;;;;;;25.14;45.98;99156.42;105707;1279;111445;-68
2022/06/05 16:17:20;;;;;;;13.20;7.30;;;;;;;25.08;45.95;99153.06;105785;1278;98206;-69
2022/06/05 16:19:58;;;;;;;16.00;7.80;;;;;;;25.00;45.91;99151.02;105733;1279;107829;-68
2022/06/05 16:22:50;;;;;;;15.50;8.30;;;;;;;24.94;45.87;99148.52;105678;1279;98462;-69
2022/06/05 16:25:52;;;;;;;14.60;7.50;;;;;;;24.89;45.89;99155.66;105645;1277;97944;-70
2022/06/05 16:28:36;;;;;;;14.70;8.10;;;;;;;24.84;45.87;99152.98;105243;1281;112872;-69
2022/06/05 16:31:47;;;;;;;14.70;8.10;;;;;;;24.77;45.76;99146.00;105759;1278;97765;-69
2022/06/05 16:40:25;;;;;;;16.00;7.70;;;;;;;24.56;45.77;99146.02;105697;1278;97872;-69
2022/06/05 16:43:19;;;;;;;14.60;7.50;;;;;;;24.53;45.77;99144.21;105715;1278;112420;-69
2022/06/05 16:46:04;;;;;;;16.00;8.20;;;;;;;24.48;45.72;99145.81;105741;1279;98823;-69
2022/06/05 16:48:51;;;;;;;19.00;8.10;;;;;;;24.44;45.72;99148.48;105853;1278;107863;-70
2022/06/05 16:51:20;;;;;;;14.50;7.30;;;;;;;24.36;45.59;99146.64;105809;1278;98596;-69
2022/06/05 16:54:28;;;;;;;13.70;7.60;;;;;;;24.30;45.57;99152.48;105791;1278;95929;-70
2022/06/05 16:57:01;;;;;;;12.00;6.40;;;;;;;24.23;45.73;99151.53;105712;1279;111029;-69
2022/06/05 16:59:59;;;;;;;12.90;6.80;;;;;;;24.20;45.52;99152.89;105817;1279;95878;-69
2022/06/05 17:02:55;;;;;;;10.40;6.10;;;;;;;24.14;45.49;99150.83;105731;1278;107746;-69
2022/06/05 17:05:34;;;;;;;9.90;5.80;;;;;;;24.09;45.41;99148.66;105679;1278;96351;-69
2022/06/05 17:08:13;;;;;;;10.80;5.70;;;;;;;24.05;45.56;99147.26;105922;1279;96579;-70
2022/06/05 17:10:47;;;;;;;9.30;5.40;;;;;;;24.03;45.38;99143.45;105790;1279;111379;-68
2022/06/05 17:13:18;;;;;;;12.30;5.90;;;;;;;24.01;45.44;99143.65;105793;1279;97901;-69
2022/06/05 17:15:58;;;;;;;12.20;6.10;;;;;;;24.00;45.33;99141.66;105778;1278;110399;-70
2022/06/05 17:18:51;;;;;;;12.50;6.10;;;;;;;23.98;45.30;99140.13;105666;1279;97955;-68
2022/06/05 17:21:32;;;;;;;12.00;5.90;;;;;;;23.93;45.30;99135.90;105829;1279;97824;-70
2022/06/05 17:24:46;;;;;;;10.50;5.80;;;;;;;23.85;45.27;99137.67;105744;1279;111375;-70
2022/06/05 17:27:39;;;;;;;10.30;5.70;;;;;;;23.79;45.28;99135.33;105811;1279;97944;-70
2022/06/05 17:30:25;;;;;;;13.00;6.50;;;;;;;23.78;45.36;99137.49;105764;1279;107775;-68
2022/06/05 17:33:06;;;;;;;11.60;5.80;;;;;;;23.75;45.44;99135.89;105658;1280;97923;-69
2022/06/05 17:35:33;;;;;;;12.70;5.90;;;;;;;23.71;45.40;99137.98;105791;1279;97867;-68
2022/06/05 17:38:34;;;;;;;8.70;5.40;;;;;;;23.68;45.51;99138.58;105765;1279;109905;-69
2022/06/05 17:41:24;;;;;;;14.00;6.30;;;;;;;23.65;45.37;99133.49;105697;1279;97897;-69
2022/06/05 17:44:01;;;;;;;12.10;5.70;;;;;;;23.62;45.36;99135.70;105798;1279;107699;-68
2022/06/05 17:46:52;;;;;;;9.80;5.90;;;;;;;23.60;45.37;99135.29;105823;1277;98438;-68
2022/06/05 17:49:48;;;;;;;8.70;5.60;;;;;;;23.57;45.54;99135.77;105946;1279;98067;-67
2022/06/05 17:52:22;;;;;;;10.80;5.70;;;;;;;23.52;45.29;99139.85;105686;1279;111891;-71
2022/06/05 17:55:03;;;;;;;10.10;5.10;;;;;;;23.48;45.25;99136.59;105917;1279;98569;-69
2022/06/05 17:57:36;;;;;;;8.70;5.30;;;;;;;23.45;45.42;99138.79;105786;1278;107772;-69
2022/06/05 18:00:08;;;;;;;9.00;5.20;;;;;;;23.41;45.35;99138.55;105719;1279;96369;-69
2022/06/05 18:02:48;;;;;;;11.10;5.80;;;;;;;23.37;45.43;99139.95;105832;1278;97547;-70
2022/06/05 18:05:33;;;;;;;12.00;6.00;;;;;;;23.33;45.56;99143.84;105775;1278;111374;-69
2022/06/05 18:08:19;;;;;;;9.40;4.80;;;;;;;23.27;45.23;99143.82;105839;1278;98593;-69
2022/06/05 18:11:18;;;;;;;7.50;4.60;;;;;;;23.20;45.44;99143.08;105845;1277;107737;-72
2022/06/05 18:13:55;;;;;;;9.50;4.60;;;;;;;23.14;45.52;99139.69;105881;1279;97073;-69
2022/06/05 18:16:39;;;;;;;9.00;5.40;;;;;;;23.09;45.24;99133.75;105824;1279;97832;-69
2022/06/05 18:19:24;;;;;;;9.70;5.70;;;;;;;23.03;45.23;99134.18;105831;1279;111292;-69
2022/06/05 18:22:43;;;;;;;9.30;5.50;;;;;;;22.96;45.23;99137.19;105763;1278;97968;-70
2022/06/05 18:25:32;;;;;;;9.80;5.40;;;;;;;22.90;45.22;99143.21;105656;1278;106378;-70
2022/06/05 18:28:06;;;;;;;11.20;5.80;;;;;;;22.81;45.49;99144.56;105665;1278;97876;-69
2022/06/05 18:30:48;;;;;;;10.60;5.20;;;;;;;22.75;45.38;99144.66;105753;1278;97893;-69
2022/06/05 18:33:24;;;;;;;8.00;5.30;;;;;;;22.68;45.38;99150.87;105841;1278;111514;-71
2022/06/05 18:39:03;;;;;;;10.40;5.40;;;;;;;22.50;45.52;99158.54;105824;1277;107777;-71
2022/06/05 18:41:34;;;;;;;10.00;5.60;;;;;;;22.43;45.50;99163.83;105754;1278;96601;-69
2022/06/05 18:44:17;;;;;;;10.10;5.40;;;;;;;22.37;45.59;99171.42;105747;1279;95506;-72
2022/06/05 18:46:49;;;;;;;13.60;5.90;;;;;;;22.30;45.60;99172.21;105725;1280;110713;-70
2022/06/05 18:49:29;;;;;;;12.80;6.30;;;;;;;22.25;45.70;99174.46;105775;1279;97986;-71
2022/06/05 18:52:07;;;;;;;10.10;5.40;;;;;;;22.19;45.40;99177.38;105759;1279;107505;-70
2022/06/05 18:54:45;;;;;;;12.40;6.50;;;;;;;22.12;45.80;99177.52;105761;1280;97873;-70
2022/06/05 18:57:13;;;;;;;12.70;6.60;;;;;;;22.05;45.61;99181.02;105936;1280;97776;-69
2022/06/05 18:59:50;;;;;;;12.70;6.80;;;;;;;21.99;45.78;99183.89;105854;1278;111411;-71
2022/06/05 19:02:24;;;;;;;12.10;6.30;;;;;;;21.92;45.84;99185.02;105779;1278;97779;-71
2022/06/05 19:04:58;;;;;;;10.40;6.20;;;;;;;21.85;45.88;99191.52;105702;1279;107856;-70
2022/06/05 19:07:39;;;;;;;12.80;6.60;;;;;;;21.77;45.77;99193.82;105761;1278;96582;-68
2022/06/05 19:10:17;;;;;;;14.70;7.30;;;;;;;21.70;45.96;99198.14;105787;1278;97885;-69
2022/06/05 19:13:07;;;;;;;14.90;7.80;;;;;;;21.62;45.96;99195.58;105881;1278;111455;-69
2022/06/05 19:15:47;;;;;;;9.70;6.10;;;;;;;21.53;46.20;99191.77;105854;1278;96202;-70
2022/06/05 19:18:46;;;;;;;12.10;6.50;;;;;;;21.42;46.08;99189.02;105804;1277;107713;-70
2022/06/05 19:21:25;;;;;;;12.00;6.40;;;;;;;21.33;46.29;99187.80;105830;1277;98221;-69
2022/06/05 19:23:53;;;;;;;12.20;6.50;;;;;;;21.24;46.28;99194.17;106276;1278;98571;-68
2022/06/05 19:26:26;;;;;;;12.20;6.40;;;;;;;21.15;46.23;99197.79;105781;1279;111395;-68
2022/06/05 19:29:05;;;;;;;;;;;;;;;21.05;46.51;99198.57;105882;1278;97898;-69
2022/06/05 19:31:59;;;;;;;14.70;6.70;;;;;;;20.91;46.50;99202.59;105840;1278;107720;-70
2022/06/05 19:34:34;;;;;;;;;;;;;;;20.81;46.43;99203.20;105800;1278;98004;-68
2022/06/05 19:38:03;;;;;;;21.00;7.10;;;;;;;20.69;46.59;99200.25;105795;1278;98060;-68
2022/06/05 19:40:18;;;;;;;13.40;6.10;;;;;;;20.57;46.90;99202.27;105625;1277;112399;-67
2022/06/05 19:43:03;;;;;;;13.20;7.00;;;;;;;20.45;46.84;99196.97;105863;1278;95320;-67
2022/06/05 19:45:41;;;;;;;16.50;6.70;;;;;;;20.33;47.03;99197.88;105858;1278;107722;-67
2022/06/05 19:48:17;;;;;;;16.50;7.20;;;;;;;20.23;46.94;99208.36;105769;1278;98076;-67
2022/06/05 19:50:47;;;;;;;16.20;7.60;;;;;;;20.12;47.12;99207.96;105815;1278;97974;-69
2022/06/05 19:53:26;;;;;;;14.20;6.90;;;;;;;20.02;47.11;99208.41;105704;1278;111072;-68
2022/06/05 19:55:57;;;;;;;15.70;8.20;;;;;;;19.92;47.26;99201.20;105818;1278;97858;-70
2022/06/05 19:58:30;;;;;;;14.40;8.00;;;;;;;19.83;47.33;99205.92;105822;1278;108280;-68
2022/06/05 20:01:36;;;;;;;20.60;7.90;;;;;;;19.73;47.38;99196.37;105840;1277;96742;-68
2022/06/05 20:04:29;;;;;;;16.70;7.40;;;;;;;19.60;47.58;99195.04;106035;1281;97991;-67
2022/06/05 20:07:21;;;;;;;14.80;7.60;;;;;;;19.48;47.78;99197.60;105766;1278;111717;-67
2022/06/05 20:09:54;;;;;;;17.10;8.00;;;;;;;19.38;47.77;99199.25;105879;1277;97894;-67
2022/06/05 20:12:29;;;;;;;19.50;8.60;;;;;;;19.30;47.85;99195.58;105722;1278;107833;-68
2022/06/05 20:15:20;;;;;;;16.80;8.30;;;;;;;19.23;47.87;99192.92;105741;1278;96291;-69